Oakland, CA

5:27 AM PDT on May 24, 2015 (GMT -0700)
ALLENDALE | | Change Station
CLOSE
Current Station
Personal Weather Station
Location: Oakland, CA
Elevation: 141 ft
Nearby Weather Stations

Elev 141 ft 37.79 °N, 122.20 °W | Updated 4 minutes ago

Partly Cloudy
Partly Cloudy
52.9 °F
Feels Like 52.9 °F
N
1.7
Wind Variable Wind from NNE

Today
High -- | Low -- °F
--% Chance of Precip.
Yesterday
High -- | Low -- °F
Precip. -- in
5:52 AM 8:19 PM
Waxing Crescent, 39% visible
Pressure 30.00 in
Visibility 10.0 miles
Clouds Mostly Cloudy 1400 ft
Dew Point 49 °F
Humidity 86%
Rainfall 0.00 in
Snow Depth Not available.
UV 0 out of 12
Pollen 6.00 out of 12
Air Quality Not available.
Flu Activity Sporadic
METAR KOAK 241153Z 26003KT 10SM BKN014 12/09 A3000 RMK AO2 SLP159 T01170089 10128 20117 56014

More Conditions Fewer Conditions

Pressure 30.00 in
Visibility 10.0 miles
Clouds Mostly Cloudy 1400 ft
Dew Point 49 °F
Humidity 86%
Rainfall 0.00 in
Snow Depth Not available.
UV 0 out of 12
Pollen 6.00 out of 12
Air Quality Not available.
Flu Activity Sporadic
METAR KOAK 241153Z 26003KT 10SM BKN014 12/09 A3000 RMK AO2 SLP159 T01170089 10128 20117 56014

More Conditions Fewer Conditions

10-Day Weather Forecast

Almanac

Astronomy

May. 24, 2015 Rise Set
Actual Time
Civil Twilight
Nautical Twilight
Astronomical Twilight
Moon
Length of Visible Light
Length of Day
Tomorrow will be .
, % of the Moon is Illuminated

Today's Extremes

State Highs State Lows

Community

WunderPhotos

Upload Photos

1,823,724 photos uploaded!

WunderBlogs® & News

Nearby

Air Quality

  Air Quality AQ Index Pollutant
Not available.

Snow Depth

Station Depth Elevation

Earthquake Activity

City Distance Mag. Time & Date
Minimum magnitude displayed is 2.5.

Coastal Water Temperatures

Place Temperature

Stations

Nearby Weather Stations

Station Location Temp. Windchill Dew Point Humidity Wind Precip. Elev Updated Type